Time;durP1;ratioP1;P1;durP2;ratioP2;P2;SDS_P1;SDS_P2;PMS_P1;PMS_P2;Temp;Humidity;BMP_temperature;BMP_pressure;BME280_temperature;BME280_humidity;BME280_pressure;Samples;Min_cycle;Max_cycle;Signal;HPM_P1;HPM_P2
2022/11/09 00:00:44;;;;;;;19.35;5.88;;;;;;;12.82;100.00;100070.88;10062871;28;96954;-80
2022/11/09 00:05:55;;;;;;;17.48;5.13;;;;;;;12.90;100.00;100074.94;10062656;28;96907;-80
2022/11/09 00:11:03;;;;;;;16.67;5.30;;;;;;;12.91;100.00;100072.28;10062307;28;96789;-80
2022/11/09 00:16:10;;;;;;;23.08;5.82;;;;;;;12.90;100.00;100074.94;10062324;28;96592;-80
2022/11/09 00:21:15;;;;;;;21.48;5.72;;;;;;;12.85;100.00;100073.34;10062324;28;96666;-80
2022/11/09 00:26:20;;;;;;;21.70;6.15;;;;;;;12.87;100.00;100079.41;10062078;28;96717;-80
2022/11/09 00:31:25;;;;;;;18.65;5.43;;;;;;;12.90;100.00;100064.44;10062399;28;97252;-80
2022/11/09 00:36:29;;;;;;;21.23;5.90;;;;;;;12.88;100.00;100072.38;10061633;28;96667;-80
2022/11/09 00:41:32;;;;;;;21.92;6.57;;;;;;;12.84;100.00;100071.66;10062118;28;96989;-80
2022/11/09 00:46:37;;;;;;;21.35;5.53;;;;;;;12.88;100.00;100075.84;10060554;28;96900;-80
2022/11/09 00:51:40;;;;;;;14.60;5.43;;;;;;;12.85;100.00;100073.34;10060899;28;96878;-80
2022/11/09 00:56:43;;;;;;;12.95;5.00;;;;;;;12.90;100.00;100074.94;10061088;28;96886;-80
2022/11/09 01:01:48;;;;;;;18.83;5.28;;;;;;;12.92;100.00;100066.09;10060839;28;97576;-80
2022/11/09 01:06:51;;;;;;;21.52;5.75;;;;;;;12.95;100.00;100068.59;10061350;28;96845;-80
2022/11/09 01:11:54;;;;;;;20.65;5.70;;;;;;;12.93;100.00;100072.22;10060581;28;96726;-80
2022/11/09 01:16:59;;;;;;;20.52;5.97;;;;;;;12.91;100.00;100071.41;10060679;28;96683;-80
2022/11/09 01:22:02;;;;;;;17.83;5.85;;;;;;;12.95;100.00;100070.38;10061267;28;96755;-81
2022/11/09 01:27:05;;;;;;;16.75;5.20;;;;;;;12.96;100.00;100074.69;10060264;28;96797;-80
2022/11/09 01:32:10;;;;;;;20.75;6.35;;;;;;;12.96;100.00;100077.31;10059503;28;96795;-81
2022/11/09 01:37:13;;;;;;;16.83;5.05;;;;;;;12.93;100.00;100074.84;10058905;28;96749;-80
2022/11/09 01:42:24;;;;;;;19.23;5.90;;;;;;;12.94;100.00;100087.03;10059991;28;97279;-81
2022/11/09 01:47:28;;;;;;;16.60;5.32;;;;;;;12.95;100.00;100091.38;10059759;28;96676;-80
2022/11/09 01:52:36;;;;;;;17.73;5.25;;;;;;;12.92;100.00;100099.38;10059399;28;96819;-80
2022/11/09 01:57:44;;;;;;;19.27;5.82;;;;;;;12.94;100.00;100102.78;10059202;28;97040;-80
2022/11/09 02:02:55;;;;;;;15.95;5.07;;;;;;;12.94;100.00;100097.53;10059374;28;96963;-80
2022/11/09 02:08:00;;;;;;;21.60;5.93;;;;;;;12.94;100.00;100098.38;10058011;28;96685;-80
2022/11/09 02:13:04;;;;;;;17.52;5.60;;;;;;;12.97;100.00;100102.66;10059418;28;96845;-80
2022/11/09 02:18:08;;;;;;;20.35;5.78;;;;;;;13.00;100.00;100097.28;10058780;28;96825;-80
2022/11/09 02:23:14;;;;;;;16.02;5.18;;;;;;;13.01;100.00;100110.31;10059141;28;96895;-80
2022/11/09 02:28:17;;;;;;;20.70;5.57;;;;;;;13.01;100.00;100109.44;10057343;28;96691;-80
2022/11/09 02:33:21;;;;;;;15.82;5.78;;;;;;;12.97;100.00;100114.00;10058716;28;97018;-80
2022/11/09 02:38:26;;;;;;;15.75;5.25;;;;;;;12.98;100.00;100109.63;10058422;28;96901;-81
2022/11/09 02:43:29;;;;;;;16.00;4.60;;;;;;;12.99;100.00;100117.38;10058128;28;96712;-81
2022/11/09 02:48:32;;;;;;;14.68;4.45;;;;;;;12.99;100.00;100116.53;10057735;28;96726;-80
2022/11/09 02:53:37;;;;;;;16.70;4.70;;;;;;;13.01;100.00;100130.44;10058022;28;96732;-80
2022/11/09 02:58:40;;;;;;;19.50;4.78;;;;;;;13.01;100.00;100126.06;10057542;28;96609;-80
2022/11/09 03:03:43;;;;;;;18.05;5.32;;;;;;;12.98;100.00;100114.88;10058339;28;96685;-80
2022/11/09 03:08:48;;;;;;;16.75;5.10;;;;;;;13.05;100.00;100118.91;10057451;28;97052;-80
2022/11/09 03:13:51;;;;;;;15.82;5.25;;;;;;;13.04;100.00;100120.66;10057533;28;96744;-80
2022/11/09 03:18:55;;;;;;;12.82;4.50;;;;;;;13.03;100.00;100136.47;10062475;28;97206;-80
2022/11/09 03:24:00;;;;;;;20.37;5.03;;;;;;;13.05;100.00;100126.78;10064568;28;97282;-80
2022/11/09 03:29:03;;;;;;;18.60;5.25;;;;;;;13.09;100.00;100133.59;10063182;28;96887;-80
2022/11/09 03:34:06;;;;;;;17.98;5.28;;;;;;;13.12;100.00;100138.72;10063653;28;97236;-79
2022/11/09 03:39:11;;;;;;;16.02;4.47;;;;;;;13.13;100.00;100132.53;10063681;28;96692;-80
2022/11/09 03:44:14;;;;;;;11.45;4.30;;;;;;;13.16;100.00;100135.03;10063154;28;96866;-80
2022/11/09 03:49:17;;;;;;;13.38;4.15;;;;;;;13.15;100.00;100130.72;10063279;28;97113;-80
2022/11/09 03:54:22;;;;;;;13.73;4.43;;;;;;;13.15;100.00;100132.47;10064079;28;96942;-80
2022/11/09 03:59:25;;;;;;;16.50;5.53;;;;;;;13.11;100.00;100137.00;10062617;28;96910;-80
2022/11/09 04:04:28;;;;;;;12.80;4.10;;;;;;;13.14;100.00;100136.03;10063115;28;96977;-80
2022/11/09 04:09:33;;;;;;;17.58;4.85;;;;;;;13.18;100.00;100150.72;10062391;28;96707;-80
2022/11/09 04:14:36;;;;;;;14.88;4.63;;;;;;;13.17;100.00;100152.50;10062835;28;97083;-80
2022/11/09 04:19:39;;;;;;;20.13;5.13;;;;;;;13.18;100.00;100151.56;10062031;28;96917;-80
2022/11/09 04:24:44;;;;;;;18.92;4.75;;;;;;;13.17;100.00;100156.88;10062231;28;96748;-80
2022/11/09 04:29:47;;;;;;;11.82;3.95;;;;;;;13.15;100.00;100159.59;10060559;28;97222;-80
2022/11/09 04:34:51;;;;;;;12.63;4.22;;;;;;;13.15;100.00;100164.84;10062044;28;96843;-80
2022/11/09 04:39:55;;;;;;;13.88;4.63;;;;;;;13.16;100.00;100176.19;10062036;28;97107;-80
2022/11/09 04:44:58;;;;;;;14.23;4.00;;;;;;;13.20;100.00;100183.00;10062239;28;96799;-80
2022/11/09 04:50:02;;;;;;;12.82;4.10;;;;;;;13.22;100.00;100178.53;10061469;28;96950;-79
2022/11/09 04:55:08;;;;;;;14.07;4.28;;;;;;;13.23;100.00;100183.72;10060971;28;96886;-80
2022/11/09 05:00:12;;;;;;;10.90;3.75;;;;;;;13.23;100.00;100182.88;10059535;28;96708;-80
2022/11/09 05:05:15;;;;;;;9.10;3.43;;;;;;;13.26;100.00;100195.03;10060628;28;96949;-79
2022/11/09 05:10:20;;;;;;;14.13;4.38;;;;;;;13.25;100.00;100202.03;10060563;28;96686;-80
2022/11/09 05:15:23;;;;;;;15.82;4.22;;;;;;;13.22;100.00;100208.28;10060447;28;96844;-79
2022/11/09 05:20:27;;;;;;;12.40;3.80;;;;;;;13.24;100.00;100214.31;10060607;28;97095;-79
2022/11/09 05:25:32;;;;;;;6.60;3.03;;;;;;;13.26;100.00;100223.91;10060136;28;96858;-80
2022/11/09 05:30:35;;;;;;;9.10;3.72;;;;;;;13.27;100.00;100225.59;10059800;28;97108;-80
2022/11/09 05:35:39;;;;;;;12.27;3.25;;;;;;;13.32;100.00;100228.88;10060803;28;96619;-80
2022/11/09 05:40:43;;;;;;;11.07;3.45;;;;;;;13.31;100.00;100238.53;10059738;28;96641;-80
2022/11/09 05:45:47;;;;;;;9.32;2.65;;;;;;;13.33;100.00;100238.47;10059757;28;96681;-80
2022/11/09 05:50:50;;;;;;;8.25;2.85;;;;;;;13.33;100.00;100235.84;10058206;28;96733;-80
2022/11/09 05:55:55;;;;;;;9.38;2.80;;;;;;;13.34;100.00;100248.03;10059376;28;96714;-80
2022/11/09 06:00:58;;;;;;;;;;;;;;;13.29;100.00;100255.28;10059674;29;96680;-80
2022/11/09 06:06:04;;;;;;;10.43;2.75;;;;;;;13.27;100.00;100247.47;10059449;29;96767;-80
2022/11/09 06:11:13;;;;;;;7.25;2.63;;;;;;;13.28;100.00;100254.44;10059001;29;96748;-80
2022/11/09 06:16:25;;;;;;;7.47;2.70;;;;;;;13.27;100.00;100251.88;10058546;28;96895;-80
2022/11/09 06:21:28;;;;;;;8.13;2.83;;;;;;;13.23;100.00;100264.28;10059149;28;96854;-80
2022/11/09 06:26:33;;;;;;;6.10;2.13;;;;;;;13.20;100.00;100265.28;10059271;28;96784;-80
2022/11/09 06:31:36;;;;;;;6.70;2.17;;;;;;;13.19;100.00;100279.31;10057832;28;96724;-79
2022/11/09 06:36:39;;;;;;;6.50;2.40;;;;;;;13.19;100.00;100276.69;10058165;28;96937;-80
2022/11/09 06:41:44;;;;;;;9.07;2.53;;;;;;;13.23;100.00;100288.75;10057238;28;96735;-80
2022/11/09 06:46:49;;;;;;;9.25;2.85;;;;;;;13.22;100.00;100275.69;10057917;28;96883;-80
2022/11/09 06:51:52;;;;;;;8.65;2.53;;;;;;;13.19;100.00;100275.84;10057226;28;96757;-79
2022/11/09 06:56:57;;;;;;;7.32;2.28;;;;;;;13.15;100.00;100283.00;10057400;28;96844;-79
2022/11/09 07:02:01;;;;;;;8.15;2.28;;;;;;;13.10;100.00;100279.72;10057411;28;96820;-80
2022/11/09 07:07:04;;;;;;;7.00;2.20;;;;;;;13.03;100.00;100286.09;10058336;28;96748;-79
2022/11/09 07:12:09;;;;;;;11.73;2.70;;;;;;;12.94;100.00;100291.75;10057322;28;96835;-80
2022/11/09 07:17:12;;;;;;;6.30;2.13;;;;;;;12.93;100.00;100290.91;10058159;28;96669;-79
2022/11/09 07:22:15;;;;;;;5.90;2.38;;;;;;;12.83;100.00;100295.63;10057143;28;96836;-79
2022/11/09 07:27:20;;;;;;;8.73;2.50;;;;;;;12.88;100.00;100298.91;10057238;28;96782;-79
2022/11/09 07:32:32;;;;;;;6.28;2.65;;;;;;;12.86;100.00;100321.75;10055636;28;96770;-79
2022/11/09 07:37:59;;;;;;;13.57;3.00;;;;;;;12.86;100.00;100315.66;10057074;28;96789;-79
2022/11/09 07:43:06;;;;;;;9.52;2.70;;;;;;;12.75;100.00;100329.22;10056916;28;96636;-80
2022/11/09 07:48:11;;;;;;;8.35;2.30;;;;;;;12.69;100.00;100334.69;10056458;28;96807;-80
2022/11/09 07:53:15;;;;;;;14.25;3.28;;;;;;;12.79;100.00;100341.28;10056350;28;96682;-80
2022/11/09 07:58:20;;;;;;;9.63;3.10;;;;;;;12.85;100.00;100351.53;10056428;28;97268;-80
2022/11/09 08:03:24;;;;;;;10.43;2.58;;;;;;;12.78;100.00;100365.81;10058847;28;96781;-80
2022/11/09 08:08:27;;;;;;;12.53;3.03;;;;;;;12.78;100.00;100371.06;10063535;28;97020;-80
2022/11/09 08:13:32;;;;;;;13.00;3.45;;;;;;;13.00;100.00;100376.34;10062271;28;96639;-80
2022/11/09 08:18:36;;;;;;;157.15;9.95;;;;;;;13.11;100.00;100383.78;10062049;28;96704;-80
2022/11/09 08:23:39;;;;;;;24.42;4.10;;;;;;;13.17;100.00;100388.81;10061286;28;96887;-80
2022/11/09 08:28:44;;;;;;;141.15;9.20;;;;;;;13.33;100.00;100388.19;10061856;29;96918;-79
2022/11/09 08:33:47;;;;;;;91.45;6.47;;;;;;;13.43;100.00;100405.28;10061530;28;96769;-80
2022/11/09 08:38:50;;;;;;;56.83;4.57;;;;;;;13.56;100.00;100421.38;10061962;28;96711;-80
2022/11/09 08:43:55;;;;;;;112.30;8.43;;;;;;;13.63;100.00;100417.56;10061891;28;96937;-80
2022/11/09 08:48:58;;;;;;;19.27;3.30;;;;;;;13.64;100.00;100429.78;10060959;28;96723;-80
2022/11/09 08:54:01;;;;;;;4.72;2.25;;;;;;;13.79;100.00;100438.78;10061313;28;96696;-80
2022/11/09 08:59:06;;;;;;;7.22;2.78;;;;;;;13.83;100.00;100450.91;10061739;28;96951;-79
2022/11/09 09:04:09;;;;;;;5.18;2.15;;;;;;;13.98;100.00;100455.50;10061292;28;96771;-79
2022/11/09 09:09:12;;;;;;;5.78;2.15;;;;;;;14.06;100.00;100462.22;10061048;28;97204;-80
2022/11/09 09:14:17;;;;;;;8.15;2.35;;;;;;;14.12;100.00;100447.03;10059564;28;96743;-79
2022/11/09 09:19:20;;;;;;;4.95;2.22;;;;;;;14.29;100.00;100454.16;10060259;28;96840;-79
2022/11/09 09:24:23;;;;;;;7.97;2.65;;;;;;;14.40;100.00;100458.13;10060551;28;96791;-79
2022/11/09 09:29:28;;;;;;;6.55;2.67;;;;;;;14.62;100.00;100455.38;10060116;28;97620;-80
2022/11/09 09:34:31;;;;;;;5.72;2.75;;;;;;;14.79;100.00;100457.25;10060523;28;96866;-80
2022/11/09 09:39:34;;;;;;;4.65;2.30;;;;;;;14.80;100.00;100456.28;10060001;28;96725;-80
2022/11/09 09:44:43;;;;;;;8.40;1.98;;;;;;;14.83;100.00;100456.16;10059775;28;96787;-80
2022/11/09 09:50:04;;;;;;;4.97;2.22;;;;;;;14.87;100.00;100465.63;10060594;28;96810;-80
2022/11/09 09:55:19;;;;;;;4.80;1.67;;;;;;;14.94;100.00;100461.81;10059736;28;96762;-80
2022/11/09 10:00:26;;;;;;;3.42;1.65;;;;;;;14.98;100.00;100473.88;10059077;28;96711;-79
2022/11/09 10:05:43;;;;;;;4.80;1.70;;;;;;;15.10;100.00;100483.00;10058469;28;97672;-80
2022/11/09 10:10:56;;;;;;;4.93;2.08;;;;;;;15.42;100.00;100489.34;10058718;28;96753;-80
2022/11/09 10:16:08;;;;;;;4.60;2.22;;;;;;;15.79;100.00;100492.84;10058903;28;96710;-80
2022/11/09 10:21:34;;;;;;;5.15;1.77;;;;;;;15.86;100.00;100488.97;10058467;28;97626;-78
2022/11/09 10:26:42;;;;;;;4.63;1.55;;;;;;;15.82;100.00;100487.41;10057797;28;97505;-79
2022/11/09 10:31:50;;;;;;;5.65;1.95;;;;;;;15.85;100.00;100489.91;10057603;28;97433;-80
2022/11/09 10:37:01;;;;;;;3.55;1.33;;;;;;;15.84;100.00;100495.25;10058295;28;96671;-81
2022/11/09 10:42:04;;;;;;;6.70;1.55;;;;;;;15.89;100.00;100493.22;10059062;28;96648;-80
2022/11/09 10:47:12;;;;;;;6.38;1.70;;;;;;;15.99;100.00;100493.63;10058246;28;97245;-80
2022/11/09 10:52:32;;;;;;;2.03;1.33;;;;;;;15.91;100.00;100495.81;10057737;28;96827;-80
2022/11/09 10:57:35;;;;;;;3.70;1.42;;;;;;;15.78;100.00;100498.22;10056578;28;96817;-79
2022/11/09 11:02:48;;;;;;;6.28;1.73;;;;;;;16.05;100.00;100501.22;10057625;28;96735;-80
2022/11/09 11:07:52;;;;;;;5.45;1.75;;;;;;;16.35;100.00;100503.25;10057637;28;96693;-80
2022/11/09 11:13:24;;;;;;;5.53;1.52;;;;;;;16.41;100.00;100500.25;10057270;28;96711;-80
2022/11/09 11:18:31;;;;;;;7.45;1.73;;;;;;;16.43;100.00;100503.66;10057170;28;97170;-80
2022/11/09 11:23:35;;;;;;;5.60;1.75;;;;;;;16.45;100.00;100501.81;10057912;28;96777;-80
2022/11/09 11:28:42;;;;;;;6.75;2.10;;;;;;;16.50;100.00;100499.81;10056082;28;96883;-79
2022/11/09 11:33:48;;;;;;;4.60;1.75;;;;;;;16.63;100.00;100489.44;10057468;28;96737;-80
2022/11/09 11:39:01;;;;;;;5.05;1.55;;;;;;;16.99;100.00;100486.63;10061280;28;97000;-80
2022/11/09 11:44:20;;;;;;;6.40;2.10;;;;;;;17.26;100.00;100491.28;10063591;28;96636;-80
2022/11/09 11:49:41;;;;;;;3.78;1.30;;;;;;;17.41;100.00;100480.81;10062445;28;96610;-80
2022/11/09 11:55:01;;;;;;;4.55;1.45;;;;;;;17.54;100.00;100484.44;10063179;28;96942;-80
2022/11/09 12:00:12;;;;;;;9.45;1.83;;;;;;;17.47;100.00;100475.16;10062621;28;97010;-80
2022/11/09 12:05:53;;;;;;;5.05;1.50;;;;;;;17.38;100.00;100472.09;10063043;28;96973;-80
2022/11/09 12:11:09;;;;;;;4.57;1.92;;;;;;;17.19;100.00;100487.28;10025512;28;97221;-80
2022/11/09 12:16:23;;;;;;;7.50;2.67;;;;;;;16.75;100.00;100478.25;10062919;28;97297;-80
2022/11/09 12:21:36;;;;;;;6.75;2.78;;;;;;;16.41;100.00;100489.69;10062266;28;96631;-80
2022/11/09 12:26:54;;;;;;;8.32;2.95;;;;;;;16.34;100.00;100483.03;10062797;28;97014;-79
2022/11/09 12:32:27;;;;;;;6.53;2.40;;;;;;;16.36;100.00;100482.06;10061384;28;96827;-80
2022/11/09 12:37:37;;;;;;;6.00;2.10;;;;;;;16.25;100.00;100479.94;10061963;28;97097;-80
2022/11/09 12:42:46;;;;;;;5.05;2.08;;;;;;;16.18;100.00;100491.75;10060688;28;96880;-80
2022/11/09 12:47:53;;;;;;;5.95;2.10;;;;;;;16.17;100.00;100490.06;10060851;28;96803;-80
2022/11/09 12:52:57;;;;;;;6.95;1.92;;;;;;;16.22;100.00;100490.69;10061345;28;97551;-80
2022/11/09 12:58:01;;;;;;;5.17;2.00;;;;;;;16.40;100.00;100485.38;10060984;28;97591;-80
2022/11/09 13:03:05;;;;;;;;;;;;;;;16.80;100.00;100475.34;10061519;28;96681;-79
2022/11/09 13:08:17;;;;;;;5.50;1.70;;;;;;;17.72;100.00;100474.59;10061478;29;97199;-80
2022/11/09 13:13:25;;;;;;;6.32;2.00;;;;;;;18.61;100.00;100463.13;10060722;28;96782;-80
2022/11/09 13:18:50;;;;;;;4.93;1.73;;;;;;;19.15;100.00;100457.94;10061508;28;96837;-80
2022/11/09 13:23:54;;;;;;;4.72;1.67;;;;;;;18.95;100.00;100455.72;10059728;28;96924;-80
2022/11/09 13:29:22;;;;;;;5.40;1.70;;;;;;;18.26;100.00;100443.19;10059657;28;96940;-80
2022/11/09 13:34:43;;;;;;;6.72;1.48;;;;;;;17.75;100.00;100432.97;10059748;28;97003;-80
2022/11/09 13:39:46;;;;;;;4.03;1.40;;;;;;;17.61;100.00;100430.25;10059785;28;96584;-80
2022/11/09 13:44:51;;;;;;;4.18;1.60;;;;;;;17.64;100.00;100431.88;10060457;28;96741;-80
2022/11/09 13:49:54;;;;;;;5.63;1.40;;;;;;;18.02;100.00;100440.22;10059637;29;96582;-80
2022/11/09 13:54:58;;;;;;;8.33;1.50;;;;;;;18.57;100.00;100436.00;10059738;28;96892;-80
2022/11/09 14:00:05;;;;;;;4.65;1.60;;;;;;;18.50;100.00;100421.44;10058905;28;96763;-80
2022/11/09 14:05:23;;;;;;;7.22;2.40;;;;;;;19.19;100.00;100406.47;10059219;28;96837;-80
2022/11/09 14:10:44;;;;;;;5.85;1.80;;;;;;;18.94;100.00;100422.25;10059850;28;96742;-80
2022/11/09 14:15:55;;;;;;;3.78;1.80;;;;;;;18.48;100.00;100413.59;10059744;28;96978;-80
2022/11/09 14:21:07;;;;;;;6.80;2.00;;;;;;;18.05;100.00;100424.16;10058774;28;97570;-80
2022/11/09 14:26:17;;;;;;;6.63;1.75;;;;;;;17.82;100.00;100424.66;10058129;28;97086;-80
2022/11/09 14:31:25;;;;;;;5.85;1.60;;;;;;;17.70;100.00;100429.75;10058085;28;96976;-80
2022/11/09 14:36:30;;;;;;;5.43;1.90;;;;;;;17.64;100.00;100430.09;10058675;28;97244;-80
2022/11/09 14:41:34;;;;;;;4.70;2.22;;;;;;;17.58;100.00;100435.75;10058514;28;96952;-80
2022/11/09 14:46:39;;;;;;;;;;;;;;;17.40;100.00;100442.09;10058626;28;97228;-80
2022/11/09 14:51:42;;;;;;;8.70;3.17;;;;;;;17.53;100.00;100443.09;10057897;28;96845;-80
2022/11/09 14:56:46;;;;;;;11.30;5.27;;;;;;;17.81;100.00;100442.31;10057637;28;96746;-80
2022/11/09 15:02:04;;;;;;;9.40;3.63;;;;;;;17.97;100.00;100449.38;10058372;29;96966;-80
2022/11/09 15:07:18;;;;;;;10.13;3.22;;;;;;;18.07;100.00;100459.31;10057792;28;97163;-80
2022/11/09 15:12:22;;;;;;;8.50;3.58;;;;;;;18.01;100.00;100454.41;10059944;28;96966;-80
2022/11/09 15:17:29;;;;;;;10.60;4.10;;;;;;;17.90;100.00;100455.03;10063334;28;96636;-80
2022/11/09 15:22:49;;;;;;;10.93;4.90;;;;;;;17.85;100.00;100458.91;10064372;28;97301;-80
2022/11/09 15:27:58;;;;;;;10.88;5.72;;;;;;;17.69;100.00;100462.41;10063611;28;96786;-80
2022/11/09 15:33:16;;;;;;;11.38;6.25;;;;;;;17.78;100.00;100452.22;10063943;28;96807;-79
2022/11/09 15:38:35;;;;;;;10.20;5.32;;;;;;;17.76;100.00;100461.09;10063707;28;96814;-79
2022/11/09 15:43:38;;;;;;;12.73;5.13;;;;;;;17.75;100.00;100458.53;10063759;28;97511;-79
2022/11/09 15:48:44;;;;;;;12.60;4.95;;;;;;;17.64;100.00;100461.81;10063440;28;97179;-80
2022/11/09 15:53:48;;;;;;;16.27;5.63;;;;;;;17.54;100.00;100461.53;10064087;28;96612;-79
2022/11/09 15:58:52;;;;;;;11.38;5.30;;;;;;;17.43;100.00;100463.06;10063065;28;96808;-80
2022/11/09 16:03:57;;;;;;;13.18;6.38;;;;;;;17.21;100.00;100463.44;10062173;28;96659;-80
2022/11/09 16:08:59;;;;;;;;;;;;;;;17.05;100.00;100474.84;10062518;28;96861;-79
2022/11/09 16:14:03;;;;;;;13.55;7.00;;;;;;;17.00;100.00;100476.88;10062719;29;96723;-79
2022/11/09 16:19:13;;;;;;;16.38;9.02;;;;;;;16.90;100.00;100473.91;10062416;28;96824;-79
2022/11/09 16:24:16;;;;;;;12.23;6.32;;;;;;;16.83;100.00;100475.16;10061266;28;96671;-79
2022/11/09 16:29:20;;;;;;;14.48;7.45;;;;;;;16.78;100.00;100472.78;10062197;28;97165;-79
2022/11/09 16:34:25;;;;;;;15.23;8.93;;;;;;;16.73;100.00;100473.97;10062444;28;97257;-79
2022/11/09 16:39:27;;;;;;;;;;;;;;;16.62;100.00;100483.31;10062817;28;96745;-79
2022/11/09 16:44:34;;;;;;;25.65;13.82;;;;;;;16.61;100.00;100486.03;10062511;29;96730;-79
2022/11/09 16:49:38;;;;;;;33.92;19.13;;;;;;;16.59;100.00;100478.19;10061323;28;96619;-79
2022/11/09 16:54:41;;;;;;;;;;;;;;;16.51;100.00;100484.81;10061343;28;97258;-79
2022/11/09 16:59:44;;;;;;;19.80;10.90;;;;;;;16.54;100.00;100493.41;10060407;29;96982;-79
2022/11/09 17:04:49;;;;;;;20.90;10.43;;;;;;;16.53;100.00;100493.50;10060508;28;96763;-79
2022/11/09 17:09:52;;;;;;;;;;;;;;;16.41;100.00;100500.25;10060789;28;96737;-79
2022/11/09 17:14:55;;;;;;;15.77;8.00;;;;;;;16.31;100.00;100512.22;10061383;28;97182;-79
2022/11/09 17:20:00;;;;;;;19.23;8.90;;;;;;;16.21;100.00;100522.41;10060772;28;96654;-79
2022/11/09 17:25:04;;;;;;;23.80;12.27;;;;;;;16.13;100.00;100521.94;10060460;28;96826;-79
2022/11/09 17:30:09;;;;;;;25.00;13.07;;;;;;;16.08;100.00;100524.81;10059232;28;96990;-79
2022/11/09 17:35:14;;;;;;;23.80;9.40;;;;;;;16.06;100.00;100529.31;10059966;28;96746;-79
2022/11/09 17:40:18;;;;;;;;;;;;;;;16.02;100.00;100533.06;10060129;28;96841;-79
2022/11/09 17:45:22;;;;;;;23.27;11.40;;;;;;;16.10;100.00;100544.03;10060115;29;96927;-79
2022/11/09 17:50:26;;;;;;;21.02;10.30;;;;;;;16.12;100.00;100542.22;10058937;28;96884;-79
2022/11/09 17:55:29;;;;;;;17.30;9.05;;;;;;;16.17;100.00;100560.44;10059537;28;96726;-79
2022/11/09 18:00:32;;;;;;;19.00;9.60;;;;;;;16.19;100.00;100567.34;10059057;28;96872;-79
2022/11/09 18:05:39;;;;;;;15.82;7.63;;;;;;;16.19;100.00;100567.34;10059358;28;96863;-79
2022/11/09 18:10:45;;;;;;;16.27;9.23;;;;;;;16.20;100.00;100576.09;10059120;28;96751;-79
2022/11/09 18:15:48;;;;;;;17.20;8.80;;;;;;;16.22;100.00;100572.47;10059093;28;96723;-79
2022/11/09 18:20:53;;;;;;;20.08;7.82;;;;;;;16.23;100.00;100574.16;10058141;28;96821;-79
2022/11/09 18:25:57;;;;;;;15.27;9.23;;;;;;;16.19;100.00;100570.00;10059551;28;96679;-79
2022/11/09 18:31:01;;;;;;;14.80;7.40;;;;;;;16.18;100.00;100577.97;10058235;28;96835;-79
2022/11/09 18:36:10;;;;;;;18.98;8.25;;;;;;;16.14;100.00;100577.28;10058493;28;96762;-79
2022/11/09 18:41:17;;;;;;;17.38;8.38;;;;;;;16.06;100.00;100590.84;10057304;28;96744;-79
2022/11/09 18:46:21;;;;;;;30.23;15.80;;;;;;;15.98;100.00;100594.78;10057545;28;97132;-79
2022/11/09 18:51:26;;;;;;;29.05;12.57;;;;;;;15.97;100.00;100596.56;10057527;28;96849;-79
2022/11/09 18:56:29;;;;;;;17.90;9.43;;;;;;;15.99;100.00;100607.06;10057473;28;96626;-79
2022/11/09 19:01:32;;;;;;;18.85;9.70;;;;;;;15.95;100.00;100608.13;10057679;28;97077;-79
2022/11/09 19:06:37;;;;;;;20.85;9.82;;;;;;;15.84;100.00;100617.41;10057437;28;97047;-79
2022/11/09 19:11:40;;;;;;;;;;;;;;;15.67;100.00;100620.84;10057858;28;96788;-79
2022/11/09 19:16:43;;;;;;;18.35;8.88;;;;;;;15.66;100.00;100623.56;10058513;29;96757;-79
2022/11/09 19:21:50;;;;;;;22.70;9.27;;;;;;;15.70;100.00;100625.13;10056980;28;96841;-79
2022/11/09 19:26:54;;;;;;;21.77;9.88;;;;;;;15.69;100.00;100631.34;10057170;28;96827;-79
2022/11/09 19:31:57;;;;;;;18.50;10.43;;;;;;;15.66;100.00;100634.94;10055246;28;97200;-79
2022/11/09 19:37:02;;;;;;;18.73;8.95;;;;;;;15.71;100.00;100631.25;10056706;28;96946;-79
2022/11/09 19:42:06;;;;;;;17.92;9.60;;;;;;;15.69;100.00;100649.78;10057043;28;96783;-79
2022/11/09 19:47:10;;;;;;;19.00;9.27;;;;;;;15.63;100.00;100650.94;10056860;28;96596;-79
2022/11/09 19:52:14;;;;;;;18.67;9.60;;;;;;;15.58;100.00;100652.03;10057054;28;96765;-79
2022/11/09 19:57:17;;;;;;;20.75;9.50;;;;;;;15.60;100.00;100658.97;10057682;28;96626;-79
2022/11/09 20:02:21;;;;;;;18.40;9.70;;;;;;;15.65;100.00;100653.47;10062753;28;97536;-79
2022/11/09 20:07:28;;;;;;;18.90;9.70;;;;;;;15.60;100.00;100656.34;10063476;28;97138;-79
2022/11/09 20:18:00;;;;;;;18.15;10.25;;;;;;;15.45;100.00;100671.03;10028246;28;96704;-79
2022/11/09 20:23:05;;;;;;;26.25;11.38;;;;;;;15.39;100.00;100684.50;10061510;28;97137;-79
2022/11/09 20:28:08;;;;;;;;;;;;;;;15.33;100.00;100690.03;10061919;28;96910;-80
2022/11/09 20:33:11;;;;;;;24.40;10.55;;;;;;;15.22;100.00;100689.69;10062204;28;96923;-79
2022/11/09 20:38:16;;;;;;;22.58;10.98;;;;;;;15.13;100.00;100697.06;10061494;28;96727;-79
2022/11/09 20:43:19;;;;;;;19.70;11.30;;;;;;;15.18;100.00;100709.16;10061385;28;96939;-79
2022/11/09 20:48:22;;;;;;;20.02;10.90;;;;;;;15.12;100.00;100713.78;10060880;28;96734;-79
2022/11/09 20:53:49;;;;;;;17.23;10.95;;;;;;;15.09;100.00;100713.91;10061074;28;97112;-79
2022/11/09 20:58:52;;;;;;;22.15;12.27;;;;;;;15.11;100.00;100721.75;10060923;28;96836;-79
2022/11/09 21:03:55;;;;;;;20.35;10.43;;;;;;;15.18;100.00;100723.19;10060770;28;96755;-79
2022/11/09 21:09:00;;;;;;;17.48;10.05;;;;;;;15.27;100.00;100719.31;10059959;28;96736;-79
2022/11/09 21:14:04;;;;;;;17.90;11.13;;;;;;;15.27;100.00;100724.59;10059729;28;97628;-79
2022/11/09 21:19:07;;;;;;;21.65;10.73;;;;;;;15.23;100.00;100731.75;10060270;28;96875;-79
2022/11/09 21:29:50;;;;;;;23.77;10.80;;;;;;;15.18;100.00;100738.13;10059484;29;96825;-79
2022/11/09 21:34:53;;;;;;;23.83;11.55;;;;;;;15.20;100.00;100752.09;10060002;28;97149;-79
2022/11/09 21:39:58;;;;;;;17.98;10.60;;;;;;;15.26;100.00;100746.56;10059580;28;96904;-79
2022/11/09 21:45:01;;;;;;;22.48;10.95;;;;;;;15.26;100.00;100752.69;10059430;28;96703;-79
2022/11/09 21:50:04;;;;;;;20.50;10.40;;;;;;;15.25;100.00;100758.03;10059425;28;96761;-79
2022/11/09 21:55:16;;;;;;;17.73;10.32;;;;;;;15.30;100.00;100756.91;10059614;28;96845;-80
2022/11/09 22:00:19;;;;;;;15.85;9.27;;;;;;;15.23;100.00;100768.63;10058662;28;96694;-79
2022/11/09 22:05:23;;;;;;;26.73;10.97;;;;;;;15.28;100.00;100766.66;10057834;28;96777;-80
2022/11/09 22:10:27;;;;;;;19.00;10.25;;;;;;;15.30;100.00;100763.94;10058228;28;96827;-79
2022/11/09 22:20:56;;;;;;;18.67;10.25;;;;;;;15.31;100.00;100765.66;10057993;29;96936;-79
2022/11/09 22:26:02;;;;;;;16.73;10.05;;;;;;;15.23;100.00;100759.88;10058345;28;96833;-79
2022/11/09 22:31:07;;;;;;;18.85;10.68;;;;;;;15.13;100.00;100762.91;10057775;28;96940;-79
2022/11/09 22:36:11;;;;;;;;;;;;;;;15.02;100.00;100767.75;10058959;28;96586;-79
2022/11/09 22:41:16;;;;;;;20.52;12.07;;;;;;;15.01;100.00;100778.34;10059581;29;96756;-79
2022/11/09 22:46:19;;;;;;;19.23;11.18;;;;;;;15.04;100.00;100779.09;10058005;28;97001;-80
2022/11/09 22:51:22;;;;;;;16.23;10.77;;;;;;;15.06;100.00;100772.00;10057250;28;96875;-79
2022/11/09 22:56:27;;;;;;;18.50;11.27;;;;;;;15.09;100.00;100776.28;10057144;28;96688;-79
2022/11/09 23:01:30;;;;;;;18.38;9.93;;;;;;;15.10;100.00;100772.72;10057626;28;96645;-79
2022/11/09 23:06:33;;;;;;;19.77;9.55;;;;;;;15.15;100.00;100769.88;10057448;28;96734;-79
2022/11/09 23:11:38;;;;;;;16.60;9.25;;;;;;;15.16;100.00;100768.97;10057764;28;97145;-79
2022/11/09 23:16:41;;;;;;;18.90;9.68;;;;;;;15.17;100.00;100768.06;10057104;28;96818;-79
2022/11/09 23:21:44;;;;;;;16.13;8.30;;;;;;;15.14;100.00;100766.41;10057342;28;96762;-79